< < Back
Terminal Aerodrome Forecast


Current Version              Previous Versions:   1  2  3  4  5  6  7  8  9  

Terminal Aerodrome Forecast

392
FTUS42 KTAE 061700
TAFVLD
TAF
KVLD 061720Z 0618/0718 03008KT P6SM OVC020
     FM062100 03007KT P6SM OVC050
     FM070200 03006KT P6SM SCT250=

Latest METAR

289
SAUS70 KWBC 062000 RRH
MTRVLD
METAR KVLD 061953Z 36012KT 3SM BR OVC008 09/08 A3033 RMK AO2 SLP279
T00940083


USA.gov is the U.S. government's official web portal to all federal, state and local government web resources and services.